createdAt,value
2022-10-05T00:01:25.158Z,1.20
2022-10-05T00:03:59.046Z,1.58
2022-10-05T00:06:29.640Z,1.20
2022-10-05T00:08:56.610Z,1.63
2022-10-05T00:11:23.426Z,1.23
2022-10-05T00:13:50.025Z,1.10
2022-10-05T00:16:19.710Z,1.30
2022-10-05T00:18:50.149Z,1.10
2022-10-05T00:21:25.647Z,1.08
2022-10-05T00:23:55.493Z,1.10
2022-10-05T00:26:24.723Z,1.23
2022-10-05T00:28:52.532Z,1.35
2022-10-05T00:31:24.399Z,1.10
2022-10-05T00:33:51.798Z,1.10
2022-10-05T00:36:19.207Z,1.23
2022-10-05T00:38:45.816Z,1.20
2022-10-05T00:41:23.051Z,1.23
2022-10-05T00:44:14.826Z,1.15
2022-10-05T00:46:53.443Z,0.80
2022-10-05T00:49:47.436Z,1.70
2022-10-05T00:52:37.274Z,1.25
2022-10-05T00:55:21.190Z,1.52
2022-10-05T00:58:08.948Z,1.40
2022-10-05T01:00:49.552Z,1.80
2022-10-05T01:03:41.090Z,1.70
2022-10-05T01:06:22.668Z,1.65
2022-10-05T01:08:58.195Z,2.13
2022-10-05T01:11:45.906Z,2.65
2022-10-05T01:14:46.391Z,2.22
2022-10-05T01:17:25.016Z,1.33
2022-10-05T01:20:10.258Z,1.75
2022-10-05T01:22:57.967Z,1.65
2022-10-05T01:25:38.312Z,1.73
2022-10-05T01:28:35.522Z,1.40
2022-10-05T01:31:28.451Z,1.23
2022-10-05T01:34:23.176Z,1.10
2022-10-05T01:37:01.616Z,1.20
2022-10-05T01:39:41.348Z,0.90
2022-10-05T01:42:32.431Z,1.33
2022-10-05T01:45:17.042Z,1.23
2022-10-05T01:47:58.135Z,1.30
2022-10-05T01:50:53.039Z,1.08
2022-10-05T01:53:45.470Z,0.90
2022-10-05T01:56:35.053Z,1.20
2022-10-05T01:59:01.517Z,1.10
2022-10-05T02:01:39.135Z,1.23
2022-10-05T02:07:34.311Z,1.00
2022-10-05T02:10:35.350Z,1.38
2022-10-05T02:13:16.823Z,1.00
2022-10-05T02:15:58.321Z,1.15
2022-10-05T02:18:40.712Z,0.98
2022-10-05T02:21:08.494Z,1.25
2022-10-05T02:23:39.530Z,1.10
2022-10-05T02:26:08.738Z,1.02
2022-10-05T02:28:59.963Z,1.00
2022-10-05T02:31:40.766Z,1.20
2022-10-05T02:34:26.127Z,1.10
2022-10-05T02:37:28.263Z,1.20
2022-10-05T02:40:00.930Z,1.10
2022-10-05T02:42:45.727Z,0.90
2022-10-05T02:45:30.994Z,1.20
2022-10-05T02:48:06.339Z,1.00
2022-10-05T02:51:01.668Z,1.13
2022-10-05T02:53:40.143Z,0.93
2022-10-05T02:56:27.133Z,1.50
2022-10-05T02:59:05.011Z,1.30
2022-10-05T03:01:38.301Z,1.30
2022-10-05T03:04:26.054Z,0.93
2022-10-05T03:07:04.686Z,1.20
2022-10-05T03:09:39.307Z,1.67
2022-10-05T03:12:05.742Z,1.55
2022-10-05T03:14:46.959Z,1.40
2022-10-05T03:17:24.920Z,1.65
2022-10-05T03:20:31.930Z,1.30
2022-10-05T03:23:04.437Z,1.80
2022-10-05T03:25:33.795Z,1.30
2022-10-05T03:28:18.534Z,1.63
2022-10-05T03:30:57.086Z,2.10
2022-10-05T03:33:46.833Z,1.75
2022-10-05T03:36:40.849Z,1.92
2022-10-05T03:39:25.760Z,1.20
2022-10-05T03:42:04.157Z,1.42
2022-10-05T03:44:41.340Z,1.70
2022-10-05T03:47:14.580Z,1.45
2022-10-05T03:50:18.320Z,1.65
2022-10-05T03:52:54.805Z,2.07
2022-10-05T03:55:43.523Z,1.90
2022-10-05T03:58:39.898Z,1.77
2022-10-05T04:01:13.270Z,1.70
2022-10-05T04:03:50.715Z,1.40
2022-10-05T04:06:27.575Z,1.45
2022-10-05T04:09:00.557Z,1.98
2022-10-05T04:11:34.319Z,1.67
2022-10-05T04:16:50.123Z,1.60
2022-10-05T04:19:22.663Z,2.03
2022-10-05T04:21:59.407Z,1.77
2022-10-05T04:25:02.831Z,2.20
2022-10-05T04:27:39.225Z,1.88
2022-10-05T04:30:11.668Z,1.40
2022-10-05T04:32:38.134Z,1.55
2022-10-05T04:35:16.464Z,1.20
2022-10-05T04:38:17.255Z,1.10
2022-10-05T04:40:53.006Z,0.90
2022-10-05T04:43:38.305Z,1.20
2022-10-05T04:46:22.722Z,1.10
2022-10-05T04:49:23.483Z,1.55
2022-10-05T04:52:22.469Z,1.50
2022-10-05T04:55:25.135Z,1.23
2022-10-05T04:58:23.561Z,0.98
2022-10-05T05:01:14.314Z,1.10
2022-10-05T05:04:07.256Z,1.02
2022-10-05T05:06:43.057Z,1.48
2022-10-05T05:09:27.326Z,1.20
2022-10-05T05:12:32.039Z,3.42
2022-10-05T05:17:39.699Z,1.00
2022-10-05T05:20:36.257Z,1.55
2022-10-05T05:23:17.559Z,1.38
2022-10-05T05:26:17.723Z,1.05
2022-10-05T05:28:59.403Z,2.00
2022-10-05T05:31:42.388Z,2.10
2022-10-05T05:34:44.698Z,2.42
2022-10-05T05:37:32.246Z,1.40
2022-10-05T05:40:21.742Z,1.90
2022-10-05T05:42:59.295Z,1.77
2022-10-05T05:45:52.266Z,1.80
2022-10-05T05:48:30.666Z,2.40
2022-10-05T05:51:14.307Z,1.90
2022-10-05T05:53:46.172Z,2.00
2022-10-05T05:56:20.826Z,2.30
2022-10-05T05:58:54.628Z,2.10
2022-10-05T06:01:33.355Z,2.42
2022-10-05T06:04:19.403Z,1.70
2022-10-05T06:06:51.330Z,1.45
2022-10-05T06:09:33.788Z,3.40
2022-10-05T06:12:09.535Z,1.23
2022-10-05T06:14:49.726Z,1.48
2022-10-05T06:17:23.208Z,1.58
2022-10-05T06:19:54.773Z,1.30
2022-10-05T06:22:27.988Z,2.05
2022-10-05T06:25:06.895Z,1.50
2022-10-05T06:27:58.380Z,1.88
2022-10-05T06:30:28.612Z,1.30
2022-10-05T06:33:07.511Z,1.60
2022-10-05T06:36:00.599Z,1.30
2022-10-05T06:38:53.419Z,1.40
2022-10-05T06:41:32.163Z,1.52
2022-10-05T06:44:04.210Z,1.70
2022-10-05T06:47:04.622Z,1.60
2022-10-05T06:49:42.498Z,1.45
2022-10-05T06:52:26.184Z,1.65
2022-10-05T06:55:11.861Z,1.38
2022-10-05T06:57:43.188Z,1.38
2022-10-05T07:00:24.836Z,1.40
2022-10-05T07:03:09.442Z,1.50
2022-10-05T07:05:48.161Z,1.17
2022-10-05T07:08:26.181Z,1.75
2022-10-05T07:11:34.473Z,1.23
2022-10-05T07:14:24.462Z,1.50
2022-10-05T07:17:06.091Z,1.27
2022-10-05T07:19:44.668Z,1.20
2022-10-05T07:22:39.750Z,1.60
2022-10-05T07:25:13.996Z,1.35
2022-10-05T07:28:16.870Z,1.15
2022-10-05T07:31:02.087Z,1.60
2022-10-05T07:33:53.404Z,1.60
2022-10-05T07:36:54.641Z,2.00
2022-10-05T07:39:58.353Z,1.40
2022-10-05T07:42:50.729Z,1.60
2022-10-05T07:45:24.649Z,1.73
2022-10-05T07:48:10.178Z,1.60
2022-10-05T07:50:57.185Z,1.48
2022-10-05T07:53:37.875Z,1.77
2022-10-05T07:56:21.636Z,1.63
2022-10-05T07:58:59.214Z,1.60
2022-10-05T08:01:34.326Z,1.92
2022-10-05T08:04:14.537Z,2.17
2022-10-05T08:06:45.843Z,1.98
2022-10-05T08:09:36.612Z,1.75
2022-10-05T08:12:03.068Z,1.63
2022-10-05T08:14:48.635Z,1.90
2022-10-05T08:17:39.731Z,1.85
2022-10-05T08:20:55.385Z,1.67
2022-10-05T08:23:40.182Z,1.25
2022-10-05T08:26:15.108Z,1.90
2022-10-05T08:29:13.811Z,2.22
2022-10-05T08:31:45.814Z,1.92
2022-10-05T08:34:37.915Z,1.70
2022-10-05T08:37:33.548Z,1.90
2022-10-05T08:40:33.830Z,1.50
2022-10-05T08:43:03.270Z,1.77
2022-10-05T08:46:08.919Z,1.77
2022-10-05T08:48:50.478Z,1.80
2022-10-05T08:51:16.982Z,2.15
2022-10-05T08:54:31.211Z,1.90
2022-10-05T08:57:16.381Z,1.42
2022-10-05T09:00:01.708Z,2.40
2022-10-05T09:02:36.317Z,2.20
2022-10-05T09:05:21.543Z,2.05
2022-10-05T09:08:15.422Z,2.40
2022-10-05T09:10:54.027Z,1.92
2022-10-05T09:13:42.878Z,2.30
2022-10-05T09:16:31.532Z,2.53
2022-10-05T09:19:32.706Z,1.95
2022-10-05T09:22:14.150Z,2.42
2022-10-05T09:24:48.640Z,2.00
2022-10-05T09:27:19.586Z,1.70
2022-10-05T09:29:58.372Z,1.75
2022-10-05T09:32:49.365Z,1.98
2022-10-05T09:35:46.892Z,1.63
2022-10-05T09:38:34.444Z,1.70
2022-10-05T09:41:20.112Z,1.73
2022-10-05T09:44:12.860Z,1.92
2022-10-05T09:46:53.909Z,1.70
2022-10-05T09:49:44.467Z,1.33
2022-10-05T09:52:26.092Z,1.40
2022-10-05T09:55:25.559Z,1.42
2022-10-05T09:58:14.685Z,1.67
2022-10-05T10:00:54.243Z,1.60
2022-10-05T10:04:10.427Z,1.45
2022-10-05T10:07:11.139Z,1.85
2022-10-05T10:09:52.640Z,1.30
2022-10-05T10:12:21.968Z,1.25
2022-10-05T10:15:10.197Z,1.30
2022-10-05T10:18:01.722Z,1.42
2022-10-05T10:20:59.308Z,1.20
2022-10-05T10:24:00.204Z,1.70
2022-10-05T10:27:04.314Z,1.40
2022-10-05T10:32:19.811Z,1.30
2022-10-05T10:34:55.259Z,1.00
2022-10-05T10:37:37.178Z,1.10
2022-10-05T10:40:37.012Z,1.73
2022-10-05T10:43:41.074Z,1.83
2022-10-05T10:48:45.969Z,1.58
2022-10-05T10:51:48.126Z,1.30
2022-10-05T10:54:30.664Z,1.20
2022-10-05T10:57:04.120Z,1.50
2022-10-05T11:00:05.725Z,1.30
2022-10-05T11:03:00.994Z,1.00
2022-10-05T11:05:55.395Z,1.23
2022-10-05T11:08:37.039Z,1.15
2022-10-05T11:11:12.489Z,1.58
2022-10-05T11:13:52.532Z,1.30
2022-10-05T11:16:21.682Z,1.15
2022-10-05T11:19:12.231Z,1.30
2022-10-05T11:21:58.412Z,1.50
2022-10-05T11:25:09.802Z,1.50
2022-10-05T11:28:00.216Z,1.23
2022-10-05T11:30:47.525Z,1.30
2022-10-05T11:33:54.596Z,1.10
2022-10-05T11:36:59.615Z,1.35
2022-10-05T11:39:36.937Z,1.30
2022-10-05T11:42:37.246Z,1.17
2022-10-05T11:45:23.519Z,1.15
2022-10-05T11:48:02.800Z,1.30
2022-10-05T11:50:46.073Z,1.10
2022-10-05T11:53:26.496Z,1.50
2022-10-05T11:56:02.203Z,1.20
2022-10-05T11:58:42.605Z,1.40
2022-10-05T12:01:34.732Z,1.30
2022-10-05T12:04:20.672Z,1.25
2022-10-05T12:07:02.957Z,1.55
2022-10-05T12:10:17.154Z,1.33
2022-10-05T12:16:20.914Z,0.93
2022-10-05T12:18:59.940Z,1.23
2022-10-05T12:21:29.551Z,1.15
2022-10-05T12:24:05.163Z,1.40
2022-10-05T12:26:37.856Z,1.10
2022-10-05T12:29:13.953Z,1.52
2022-10-05T12:31:56.277Z,1.27
2022-10-05T12:34:28.847Z,1.30
2022-10-05T12:37:05.454Z,1.30
2022-10-05T12:39:38.281Z,1.10
2022-10-05T12:42:26.505Z,1.17
2022-10-05T12:45:08.325Z,1.10
2022-10-05T12:47:56.041Z,1.42
2022-10-05T12:50:37.804Z,0.98
2022-10-05T12:53:30.441Z,1.13
2022-10-05T12:55:57.027Z,1.20
2022-10-05T12:58:35.761Z,1.15
2022-10-05T13:01:14.350Z,1.50
2022-10-05T13:03:49.475Z,1.30
2022-10-05T13:06:33.293Z,1.13
2022-10-05T13:09:11.128Z,1.02
2022-10-05T13:11:50.273Z,1.30
2022-10-05T13:14:38.469Z,1.10
2022-10-05T13:17:34.143Z,1.40
2022-10-05T13:20:21.537Z,1.27
2022-10-05T13:23:02.261Z,1.20
2022-10-05T13:25:28.745Z,1.20
2022-10-05T13:28:16.639Z,1.15
2022-10-05T13:30:54.235Z,1.35
2022-10-05T13:33:43.776Z,1.02
2022-10-05T13:36:14.364Z,1.23
2022-10-05T13:38:47.115Z,1.10
2022-10-05T13:41:32.351Z,1.10
2022-10-05T13:44:20.828Z,1.30
2022-10-05T13:47:01.434Z,1.10
2022-10-05T13:49:59.817Z,1.38
2022-10-05T13:52:42.600Z,1.10
2022-10-05T13:55:37.180Z,1.23
2022-10-05T13:58:41.286Z,1.45
2022-10-05T14:01:24.157Z,1.40
2022-10-05T14:04:19.815Z,1.17
2022-10-05T14:06:47.451Z,1.30
2022-10-05T14:09:27.607Z,1.20
2022-10-05T14:12:03.283Z,1.48
2022-10-05T14:14:33.266Z,1.38
2022-10-05T14:19:40.662Z,1.48
2022-10-05T14:22:22.494Z,1.13
2022-10-05T14:24:56.356Z,1.17
2022-10-05T14:27:34.811Z,1.25
2022-10-05T14:30:18.130Z,1.20
2022-10-05T14:33:05.905Z,1.20
2022-10-05T14:35:53.656Z,1.27
2022-10-05T14:38:26.466Z,1.25
2022-10-05T14:41:17.911Z,1.33
2022-10-05T14:43:54.570Z,1.17
2022-10-05T14:46:28.136Z,1.38
2022-10-05T14:49:21.709Z,1.52
2022-10-05T14:51:50.152Z,1.30
2022-10-05T14:54:41.273Z,1.45
2022-10-05T14:57:25.235Z,1.20
2022-10-05T15:00:30.432Z,1.23
2022-10-05T15:03:31.281Z,1.50
2022-10-05T15:06:02.403Z,1.30
2022-10-05T15:09:17.034Z,1.50
2022-10-05T15:11:47.413Z,1.42
2022-10-05T15:14:24.098Z,1.35
2022-10-05T15:16:54.367Z,1.40
2022-10-05T15:19:50.909Z,1.60
2022-10-05T15:22:35.637Z,1.27
2022-10-05T15:25:12.254Z,1.30
2022-10-05T15:28:07.336Z,1.52
2022-10-05T15:30:39.768Z,1.33
2022-10-05T15:33:15.217Z,1.40
2022-10-05T15:36:01.475Z,1.48
2022-10-05T15:38:36.677Z,1.42
2022-10-05T15:41:20.272Z,1.80
2022-10-05T15:46:56.499Z,1.35
2022-10-05T15:49:51.277Z,1.70
2022-10-05T15:52:29.975Z,1.85
2022-10-05T15:55:18.012Z,1.55
2022-10-05T15:57:57.641Z,1.60
2022-10-05T16:00:25.602Z,1.70
2022-10-05T16:03:02.683Z,1.80
2022-10-05T16:05:47.602Z,1.50
2022-10-05T16:08:50.537Z,1.70
2022-10-05T16:11:38.877Z,1.65
2022-10-05T16:14:19.520Z,1.63
2022-10-05T16:16:46.068Z,2.70
2022-10-05T16:19:42.514Z,2.50
2022-10-05T16:22:33.399Z,2.58
2022-10-05T16:25:46.543Z,2.28
2022-10-05T16:28:42.605Z,2.40
2022-10-05T16:31:19.539Z,2.63
2022-10-05T16:34:01.039Z,2.40
2022-10-05T16:36:27.483Z,2.70
2022-10-05T16:39:20.515Z,2.63
2022-10-05T16:41:56.494Z,2.28
2022-10-05T16:45:06.707Z,2.15
2022-10-05T16:47:59.537Z,2.38
2022-10-05T16:50:25.965Z,2.20
2022-10-05T16:52:58.393Z,2.45
2022-10-05T16:55:39.670Z,2.72
2022-10-05T16:58:20.841Z,2.90
2022-10-05T17:01:04.680Z,2.35
2022-10-05T17:06:15.772Z,2.38
2022-10-05T17:08:57.218Z,1.80
2022-10-05T17:11:45.721Z,1.85
2022-10-05T17:14:21.095Z,1.90
2022-10-05T17:17:03.870Z,2.22
2022-10-05T17:19:42.018Z,1.80
2022-10-05T17:22:12.387Z,1.65
2022-10-05T17:25:18.264Z,2.10
2022-10-05T17:28:18.604Z,1.83
2022-10-05T17:31:06.104Z,2.53
2022-10-05T17:33:33.837Z,2.13
2022-10-05T17:36:04.705Z,2.10
2022-10-05T17:38:31.203Z,2.10
2022-10-05T17:41:00.514Z,2.60
2022-10-05T17:43:28.806Z,3.03
2022-10-05T17:45:58.384Z,1.88
2022-10-05T17:48:54.343Z,2.33
2022-10-05T17:51:48.506Z,2.08
2022-10-05T17:54:41.297Z,2.33
2022-10-05T17:57:07.742Z,1.70
2022-10-05T17:59:57.462Z,2.00
2022-10-05T18:02:36.715Z,2.17
2022-10-05T18:05:06.235Z,2.58
2022-10-05T18:07:37.079Z,2.45
2022-10-05T18:10:12.516Z,2.22
2022-10-05T18:12:47.557Z,2.20
2022-10-05T18:15:41.140Z,2.15
2022-10-05T18:18:32.404Z,2.10
2022-10-05T18:21:14.425Z,2.13
2022-10-05T18:23:52.626Z,2.70
2022-10-05T18:26:40.326Z,3.55
2022-10-05T18:29:54.792Z,1.92
2022-10-05T18:32:45.534Z,2.13
2022-10-05T18:35:24.209Z,2.63
2022-10-05T18:38:26.468Z,2.58
2022-10-05T18:41:05.250Z,2.22
2022-10-05T18:43:38.724Z,2.35
2022-10-05T18:46:28.696Z,2.28
2022-10-05T18:49:06.090Z,2.35
2022-10-05T18:52:00.451Z,1.95
2022-10-05T18:54:48.862Z,2.40
2022-10-05T18:57:39.624Z,2.20
2022-10-05T19:00:21.354Z,2.10
2022-10-05T19:03:02.852Z,2.33
2022-10-05T19:05:49.423Z,2.20
2022-10-05T19:08:18.899Z,2.33
2022-10-05T19:10:51.521Z,2.22
2022-10-05T19:13:42.002Z,1.90
2022-10-05T19:16:30.786Z,2.10
2022-10-05T19:19:30.822Z,2.40
2022-10-05T19:22:22.918Z,2.00
2022-10-05T19:24:59.327Z,2.60
2022-10-05T19:27:49.806Z,3.38
2022-10-05T19:30:50.678Z,2.80
2022-10-05T19:33:37.696Z,2.45
2022-10-05T19:36:37.274Z,2.40
2022-10-05T19:39:19.215Z,2.83
2022-10-05T19:42:01.151Z,3.15
2022-10-05T19:44:59.815Z,3.10
2022-10-05T19:47:52.004Z,2.40
2022-10-05T19:50:20.581Z,2.72
2022-10-05T19:52:51.096Z,2.50
2022-10-05T19:55:20.519Z,2.90
2022-10-05T19:57:49.355Z,2.83
2022-10-05T20:00:25.846Z,3.03
2022-10-05T20:03:12.371Z,2.35
2022-10-05T20:05:39.898Z,2.60
2022-10-05T20:08:07.914Z,2.83
2022-10-05T20:10:34.695Z,2.78
2022-10-05T20:13:04.523Z,3.15
2022-10-05T20:15:52.582Z,2.60
2022-10-05T20:19:02.674Z,2.70
2022-10-05T20:21:41.292Z,2.63
2022-10-05T20:24:08.418Z,2.42
2022-10-05T20:27:07.118Z,2.70
2022-10-05T20:29:38.916Z,2.80
2022-10-05T20:32:13.410Z,2.38
2022-10-05T20:34:42.475Z,2.75
2022-10-05T20:37:17.259Z,2.97
2022-10-05T20:39:44.391Z,3.17
2022-10-05T20:42:11.632Z,2.63
2022-10-05T20:44:38.476Z,2.80
2022-10-05T20:47:09.078Z,2.75
2022-10-05T20:49:37.104Z,2.70
2022-10-05T20:52:05.917Z,3.42
2022-10-05T20:54:32.723Z,2.75
2022-10-05T20:56:59.207Z,2.47
2022-10-05T20:59:26.345Z,2.40
2022-10-05T21:01:53.551Z,2.30
2022-10-05T21:04:25.706Z,2.25
2022-10-05T21:06:53.160Z,3.40
2022-10-05T21:09:21.490Z,2.72
2022-10-05T21:11:54.503Z,3.00
2022-10-05T21:14:21.115Z,3.25
2022-10-05T21:16:47.778Z,3.13
2022-10-05T21:19:15.276Z,2.63
2022-10-05T21:21:46.230Z,2.90
2022-10-05T21:24:14.578Z,2.72
2022-10-05T21:26:42.085Z,2.80
2022-10-05T21:29:12.508Z,2.83
2022-10-05T21:31:39.934Z,2.60
2022-10-05T21:34:06.757Z,2.70
2022-10-05T21:36:33.405Z,2.28
2022-10-05T21:39:00.387Z,2.53
2022-10-05T21:41:26.979Z,2.63
2022-10-05T21:43:53.646Z,3.13
2022-10-05T21:46:22.718Z,2.70
2022-10-05T21:48:49.996Z,3.08
2022-10-05T21:51:18.827Z,2.85
2022-10-05T21:53:56.744Z,2.53
2022-10-05T21:56:28.194Z,2.42
2022-10-05T21:58:54.970Z,3.35
2022-10-05T22:01:22.840Z,2.75
2022-10-05T22:03:49.816Z,2.80
2022-10-05T22:06:16.406Z,2.70
2022-10-05T22:08:43.244Z,2.90
2022-10-05T22:11:12.938Z,2.20
2022-10-05T22:13:46.008Z,2.60
2022-10-05T22:16:13.900Z,2.63
2022-10-05T22:18:40.955Z,2.60
2022-10-05T22:21:09.165Z,2.85
2022-10-05T22:23:35.990Z,2.85
2022-10-05T22:26:04.057Z,3.40
2022-10-05T22:28:32.649Z,3.03
2022-10-05T22:31:03.242Z,2.60
2022-10-05T22:33:29.795Z,3.33
2022-10-05T22:36:00.632Z,2.63
2022-10-05T22:38:27.784Z,2.60
2022-10-05T22:40:54.503Z,2.55
2022-10-05T22:43:21.108Z,3.65
2022-10-05T22:45:47.678Z,2.85
2022-10-05T22:48:15.707Z,3.00
2022-10-05T22:50:46.540Z,3.08
2022-10-05T22:53:13.909Z,3.08
2022-10-05T22:55:40.804Z,3.00
2022-10-05T22:58:07.346Z,2.75
2022-10-05T23:00:56.466Z,2.85
2022-10-05T23:03:20.437Z,2.92
2022-10-05T23:05:46.962Z,2.80
2022-10-05T23:08:13.475Z,2.38
2022-10-05T23:10:40.013Z,2.60
2022-10-05T23:13:07.340Z,2.50
2022-10-05T23:15:34.513Z,2.75
2022-10-05T23:18:01.073Z,2.38
2022-10-05T23:20:27.611Z,2.28
2022-10-05T23:22:54.109Z,2.80
2022-10-05T23:25:22.186Z,2.75
2022-10-05T23:27:48.892Z,2.38
2022-10-05T23:30:15.797Z,2.35
2022-10-05T23:32:44.181Z,1.98
2022-10-05T23:35:12.998Z,2.47
2022-10-05T23:37:43.532Z,1.85
2022-10-05T23:40:13.251Z,1.90
2022-10-05T23:42:42.848Z,2.72
2022-10-05T23:45:10.898Z,1.75
2022-10-05T23:47:38.592Z,2.33
2022-10-05T23:50:07.085Z,2.25
2022-10-05T23:52:34.687Z,1.77
2022-10-05T23:55:02.418Z,1.95
2022-10-05T23:57:28.986Z,2.28
2022-10-05T23:59:56.383Z,2.83
